PWSweather.com
Personal Weather Stations
Station Observations

YeovilGB

Lat: 50.949, Lon: -2.627

Elevation: 70

Station Type: Vantage Pro

http://www.yeovil-weather.me.uk/

High Low Average
Temperature 51.0°F10.6°C 36.9°F2.7°C 43.3°F6.3°C
Dew Point 49.9°F9.9°C 34.9°F1.6°C 41.4°F5.2°C
Winds 10.4 mph 16.7 kmh Calm Calm 1.0 mph SW1.6 kmh SW
Wind Gusts 19.6 mph31.5 kmh -- 3.0 mph4.8 kmh
Humidity 97% 86% 93%
Pressure 29.91 in1012.9 mb 29.46 in997.6 mb -
Precipitation 0.06 in1.5 mm - -
Hour Temp Dew Point Humidity Winds Wind Gusts Pressure Precip Precip Rate Daily Precip Total
12:00 AM 38.0°F3.3°C 35.9°F2.2°C 92% Calm Calm 1.2 mph1.9 kmh 29.82 in1009.8 mb - 0.00 in0.0 mm 0.00 in0.0 mm
12:10 AM 38.3°F3.5°C 36.2°F2.3°C 92% Calm Calm -- 29.81 in1009.5 mb - 0.00 in0.0 mm 0.00 in0.0 mm
12:20 AM 38.4°F3.6°C 36.3°F2.4°C 92% Calm Calm 1.2 mph1.9 kmh 29.81 in1009.5 mb - 0.00 in0.0 mm 0.00 in0.0 mm
12:30 AM 38.6°F3.7°C 36.5°F2.5°C 92% Calm Calm -- 29.80 in1009.1 mb - 0.00 in0.0 mm 0.00 in0.0 mm
12:40 AM 38.7°F3.7°C 36.3°F2.4°C 91% Calm Calm -- 29.79 in1008.8 mb - 0.00 in0.0 mm 0.00 in0.0 mm
12:50 AM 38.8°F3.8°C 36.7°F2.6°C 92% Calm Calm -- 29.79 in1008.8 mb - 0.00 in0.0 mm 0.00 in0.0 mm
01:00 AM 39.0°F3.9°C 36.6°F2.6°C 91% 1.2 mph SW1.9 kmh SW 3.5 mph5.6 kmh 29.79 in1008.8 mb - 0.00 in0.0 mm 0.00 in0.0 mm
01:10 AM 39.4°F4.1°C 37.3°F2.9°C 92% 2.3 mph SSW3.7 kmh SSW 6.9 mph11.1 kmh 29.78 in1008.5 mb - 0.00 in0.0 mm 0.00 in0.0 mm
01:20 AM 40.1°F4.5°C 37.7°F3.2°C 91% Calm Calm 5.8 mph9.3 kmh 29.78 in1008.5 mb - 0.00 in0.0 mm 0.00 in0.0 mm
01:30 AM 40.5°F4.7°C 37.8°F3.2°C 90% 3.5 mph SW5.6 kmh SW 9.2 mph14.8 kmh 29.77 in1008.1 mb - 0.00 in0.0 mm 0.00 in0.0 mm
01:40 AM 40.9°F4.9°C 37.9°F3.3°C 89% 2.3 mph SW3.7 kmh SW 6.9 mph11.1 kmh 29.76 in1007.8 mb - 0.00 in0.0 mm 0.00 in0.0 mm
01:50 AM 40.9°F4.9°C 37.7°F3.2°C 88% 1.2 mph SW1.9 kmh SW -- 29.75 in1007.5 mb - 0.00 in0.0 mm 0.00 in0.0 mm
02:00 AM 40.9°F4.9°C 37.6°F3.1°C 88% Calm Calm -- 29.74 in1007.1 mb - 0.00 in0.0 mm 0.00 in0.0 mm
02:10 AM 40.9°F4.9°C 37.6°F3.1°C 88% Calm Calm -- 29.73 in1006.8 mb - 0.00 in0.0 mm 0.00 in0.0 mm
02:20 AM 40.9°F4.9°C 37.9°F3.3°C 89% Calm Calm -- 29.72 in1006.4 mb - 0.00 in0.0 mm 0.00 in0.0 mm
02:30 AM 40.8°F4.9°C 37.8°F3.2°C 89% Calm Calm -- 29.72 in1006.4 mb - 0.00 in0.0 mm 0.00 in0.0 mm
02:40 AM 40.8°F4.9°C 37.8°F3.2°C 89% Calm Calm -- 29.71 in1006.1 mb - 0.00 in0.0 mm 0.00 in0.0 mm
02:50 AM 40.7°F4.8°C 38.0°F3.3°C 90% Calm Calm -- 29.70 in1005.8 mb - 0.00 in0.0 mm 0.00 in0.0 mm
03:00 AM 40.6°F4.8°C 37.9°F3.3°C 90% Calm Calm -- 29.69 in1005.4 mb - 0.00 in0.0 mm 0.00 in0.0 mm
03:10 AM 40.6°F4.8°C 38.2°F3.4°C 91% Calm Calm -- 29.69 in1005.4 mb - 0.01 in0.3 mm 0.01 in0.3 mm
03:20 AM 40.6°F4.8°C 38.5°F3.6°C 92% Calm Calm -- 29.68 in1005.1 mb - 0.01 in0.3 mm 0.02 in0.5 mm
03:30 AM 40.6°F4.8°C 38.5°F3.6°C 92% Calm Calm -- 29.67 in1004.7 mb - 0.01 in0.3 mm 0.02 in0.5 mm
03:40 AM 40.6°F4.8°C 38.7°F3.7°C 93% Calm Calm -- 29.66 in1004.4 mb - 0.01 in0.3 mm 0.02 in0.5 mm
03:50 AM 40.8°F4.9°C 38.9°F3.8°C 93% Calm Calm -- 29.65 in1004.1 mb - 0.00 in0.0 mm 0.02 in0.5 mm
04:00 AM 40.9°F4.9°C 39.3°F4.1°C 94% Calm Calm 1.2 mph1.9 kmh 29.63 in1003.4 mb - 0.00 in0.0 mm 0.02 in0.5 mm
04:10 AM 40.9°F4.9°C 39.3°F4.1°C 94% Calm Calm -- 29.62 in1003.0 mb - 0.00 in0.0 mm 0.02 in0.5 mm
04:20 AM 40.9°F4.9°C 39.3°F4.1°C 94% Calm Calm -- 29.61 in1002.7 mb - 0.00 in0.0 mm 0.02 in0.5 mm
04:30 AM 40.9°F4.9°C 39.4°F4.1°C 94% Calm Calm -- 29.61 in1002.7 mb - 0.00 in0.0 mm 0.02 in0.5 mm
04:40 AM 41.1°F5.1°C 39.8°F4.3°C 95% Calm Calm -- 29.59 in1002.0 mb - 0.00 in0.0 mm 0.02 in0.5 mm
04:50 AM 41.3°F5.2°C 40.0°F4.4°C 95% Calm Calm -- 29.59 in1002.0 mb - 0.00 in0.0 mm 0.02 in0.5 mm
05:00 AM 41.3°F5.2°C 40.0°F4.4°C 95% Calm Calm -- 29.58 in1001.7 mb - 0.01 in0.3 mm 0.03 in0.8 mm
05:10 AM 41.3°F5.2°C 40.0°F4.4°C 95% Calm Calm -- 29.58 in1001.7 mb - 0.00 in0.0 mm 0.03 in0.8 mm
05:20 AM 41.4°F5.2°C 40.1°F4.5°C 95% Calm Calm 2.3 mph3.7 kmh 29.57 in1001.4 mb - 0.01 in0.3 mm 0.04 in1.0 mm
05:30 AM 41.4°F5.2°C 40.1°F4.5°C 95% Calm Calm -- 29.56 in1001.0 mb - 0.00 in0.0 mm 0.04 in1.0 mm
05:40 AM 41.4°F5.2°C 40.1°F4.5°C 95% 1.2 mph SE1.9 kmh SE 2.3 mph3.7 kmh 29.56 in1001.0 mb - 0.00 in0.0 mm 0.04 in1.0 mm
05:50 AM 41.6°F5.3°C 40.2°F4.6°C 95% 1.2 mph ESE1.9 kmh ESE 4.6 mph7.4 kmh 29.55 in1000.7 mb - 0.00 in0.0 mm 0.04 in1.0 mm
06:00 AM 41.6°F5.3°C 40.3°F4.6°C 95% Calm Calm -- 29.54 in1000.3 mb - 0.00 in0.0 mm 0.04 in1.0 mm
06:10 AM 41.6°F5.3°C 40.3°F4.6°C 95% 1.2 mph SE1.9 kmh SE 4.6 mph7.4 kmh 29.53 in1000.0 mb - 0.00 in0.0 mm 0.04 in1.0 mm
06:20 AM 41.6°F5.3°C 40.3°F4.6°C 95% 1.2 mph ESE1.9 kmh ESE 4.6 mph7.4 kmh 29.52 in999.7 mb - 0.00 in0.0 mm 0.04 in1.0 mm
06:30 AM 41.6°F5.3°C 40.3°F4.6°C 95% Calm Calm -- 29.52 in999.7 mb - 0.00 in0.0 mm 0.04 in1.0 mm
06:40 AM 41.7°F5.4°C 40.4°F4.7°C 95% Calm Calm -- 29.52 in999.7 mb - 0.00 in0.0 mm 0.04 in1.0 mm
06:50 AM 41.7°F5.4°C 40.4°F4.7°C 95% Calm Calm -- 29.52 in999.7 mb - 0.00 in0.0 mm 0.04 in1.0 mm
07:00 AM 41.7°F5.4°C 40.6°F4.8°C 96% Calm Calm -- 29.51 in999.3 mb - 0.00 in0.0 mm 0.04 in1.0 mm
07:10 AM 41.8°F5.4°C 40.7°F4.8°C 96% Calm Calm 3.5 mph5.6 kmh 29.51 in999.3 mb - 0.00 in0.0 mm 0.04 in1.0 mm
07:20 AM 41.9°F5.5°C 40.8°F4.9°C 96% Calm Calm -- 29.51 in999.3 mb - 0.00 in0.0 mm 0.04 in1.0 mm
07:30 AM 41.9°F5.5°C 40.8°F4.9°C 96% Calm Calm -- 29.51 in999.3 mb - 0.00 in0.0 mm 0.04 in1.0 mm
07:40 AM 41.9°F5.5°C 40.8°F4.9°C 96% Calm Calm -- 29.51 in999.3 mb - 0.00 in0.0 mm 0.04 in1.0 mm
07:50 AM 42.0°F5.6°C 40.9°F4.9°C 96% Calm Calm -- 29.51 in999.3 mb - 0.01 in0.3 mm 0.05 in1.3 mm
08:00 AM 42.0°F5.6°C 41.0°F5.0°C 96% Calm Calm -- 29.50 in999.0 mb - 0.00 in0.0 mm 0.05 in1.3 mm
08:10 AM 42.1°F5.6°C 41.0°F5.0°C 96% Calm Calm -- 29.50 in999.0 mb - 0.00 in0.0 mm 0.05 in1.3 mm
08:20 AM 42.2°F5.7°C 41.1°F5.1°C 96% Calm Calm -- 29.49 in998.6 mb - 0.00 in0.0 mm 0.05 in1.3 mm
08:30 AM 42.2°F5.7°C 41.1°F5.1°C 96% Calm Calm -- 29.49 in998.6 mb - 0.00 in0.0 mm 0.05 in1.3 mm
08:40 AM 42.2°F5.7°C 41.1°F5.1°C 96% Calm Calm -- 29.49 in998.6 mb - 0.00 in0.0 mm 0.05 in1.3 mm
08:50 AM 42.3°F5.7°C 41.2°F5.1°C 96% Calm Calm -- 29.49 in998.6 mb - 0.00 in0.0 mm 0.05 in1.3 mm
09:00 AM 42.4°F5.8°C 41.3°F5.2°C 96% Calm Calm -- 29.50 in999.0 mb - 0.00 in0.0 mm 0.05 in1.3 mm
09:10 AM 42.5°F5.8°C 41.4°F5.2°C 96% Calm Calm -- 29.50 in999.0 mb - 0.00 in0.0 mm 0.05 in1.3 mm
09:20 AM 42.6°F5.9°C 41.5°F5.3°C 96% Calm Calm -- 29.50 in999.0 mb - 0.00 in0.0 mm 0.05 in1.3 mm
09:30 AM 42.8°F6.0°C 42.0°F5.6°C 97% Calm Calm -- 29.51 in999.3 mb - 0.00 in0.0 mm 0.05 in1.3 mm
09:40 AM 42.9°F6.1°C 42.1°F5.6°C 97% Calm Calm -- 29.50 in999.0 mb - 0.00 in0.0 mm 0.05 in1.3 mm
09:50 AM 43.1°F6.2°C 42.3°F5.7°C 97% Calm Calm -- 29.51 in999.3 mb - 0.00 in0.0 mm 0.05 in1.3 mm
10:00 AM 43.2°F6.2°C 42.1°F5.6°C 96% Calm Calm -- 29.50 in999.0 mb - 0.00 in0.0 mm 0.05 in1.3 mm
10:10 AM 43.4°F6.3°C 42.6°F5.9°C 97% Calm Calm -- 29.50 in999.0 mb - 0.00 in0.0 mm 0.05 in1.3 mm
10:20 AM 43.6°F6.4°C 42.8°F6.0°C 97% Calm Calm -- 29.51 in999.3 mb - 0.00 in0.0 mm 0.05 in1.3 mm
10:30 AM 43.8°F6.6°C 43.0°F6.1°C 97% Calm Calm -- 29.51 in999.3 mb - 0.00 in0.0 mm 0.05 in1.3 mm
10:40 AM 44.0°F6.7°C 43.2°F6.2°C 97% Calm Calm -- 29.51 in999.3 mb - 0.00 in0.0 mm 0.05 in1.3 mm
10:50 AM 44.2°F6.8°C 43.4°F6.3°C 97% Calm Calm -- 29.51 in999.3 mb - 0.00 in0.0 mm 0.05 in1.3 mm
11:00 AM 44.3°F6.8°C 43.5°F6.4°C 97% Calm Calm -- 29.51 in999.3 mb - 0.00 in0.0 mm 0.05 in1.3 mm
11:10 AM 44.4°F6.9°C 43.6°F6.4°C 97% Calm Calm -- 29.50 in999.0 mb - 0.00 in0.0 mm 0.05 in1.3 mm
11:20 AM 44.3°F6.8°C 43.5°F6.4°C 97% Calm Calm -- 29.50 in999.0 mb - 0.00 in0.0 mm 0.05 in1.3 mm
11:30 AM 44.5°F6.9°C 43.7°F6.5°C 97% Calm Calm 2.3 mph3.7 kmh 29.51 in999.3 mb - 0.00 in0.0 mm 0.05 in1.3 mm
11:40 AM 44.7°F7.1°C 43.9°F6.6°C 97% Calm Calm -- 29.51 in999.3 mb - 0.00 in0.0 mm 0.05 in1.3 mm
11:50 AM 45.0°F7.2°C 44.2°F6.8°C 97% 1.2 mph SW1.9 kmh SW 1.2 mph1.9 kmh 29.51 in999.3 mb - 0.00 in0.0 mm 0.05 in1.3 mm
12:00 PM 45.4°F7.4°C 44.6°F7.0°C 97% 1.2 mph SW1.9 kmh SW 5.8 mph9.3 kmh 29.50 in999.0 mb - 0.00 in0.0 mm 0.05 in1.3 mm
12:10 PM 45.7°F7.6°C 44.9°F7.2°C 97% Calm Calm 2.3 mph3.7 kmh 29.50 in999.0 mb - 0.00 in0.0 mm 0.05 in1.3 mm
12:20 PM 46.0°F7.8°C 45.2°F7.3°C 97% Calm Calm -- 29.49 in998.6 mb - 0.00 in0.0 mm 0.05 in1.3 mm
12:30 PM 46.3°F7.9°C 45.5°F7.5°C 97% 3.5 mph W5.6 kmh W 6.9 mph11.1 kmh 29.49 in998.6 mb - 0.00 in0.0 mm 0.05 in1.3 mm
12:40 PM 46.3°F7.9°C 45.5°F7.5°C 97% 4.6 mph SW7.4 kmh SW 5.8 mph9.3 kmh 29.48 in998.3 mb - 0.00 in0.0 mm 0.05 in1.3 mm
12:50 PM 46.6°F8.1°C 45.8°F7.7°C 97% 3.5 mph SW5.6 kmh SW 3.5 mph5.6 kmh 29.48 in998.3 mb - 0.01 in0.3 mm 0.06 in1.5 mm
01:00 PM 47.1°F8.4°C 46.3°F7.9°C 97% 1.2 mph SW1.9 kmh SW 3.5 mph5.6 kmh 29.47 in998.0 mb - 0.00 in0.0 mm 0.06 in1.5 mm
01:10 PM 47.2°F8.4°C 46.4°F8.0°C 97% Calm Calm 3.5 mph5.6 kmh 29.47 in998.0 mb - 0.00 in0.0 mm 0.06 in1.5 mm
01:20 PM 47.3°F8.5°C 46.5°F8.1°C 97% Calm Calm -- 29.47 in998.0 mb - 0.00 in0.0 mm 0.06 in1.5 mm
01:30 PM 47.5°F8.6°C 46.7°F8.2°C 97% Calm Calm -- 29.46 in997.6 mb - 0.00 in0.0 mm 0.06 in1.5 mm
01:40 PM 47.8°F8.8°C 47.0°F8.3°C 97% Calm Calm -- 29.46 in997.6 mb - 0.00 in0.0 mm 0.06 in1.5 mm
01:50 PM 48.0°F8.9°C 47.2°F8.4°C 97% Calm Calm 3.5 mph5.6 kmh 29.47 in998.0 mb - 0.00 in0.0 mm 0.06 in1.5 mm
02:00 PM 48.3°F9.1°C 47.5°F8.6°C 97% Calm Calm 1.2 mph1.9 kmh 29.46 in997.6 mb - 0.00 in0.0 mm 0.06 in1.5 mm
02:10 PM 48.8°F9.3°C 48.0°F8.9°C 97% Calm Calm -- 29.46 in997.6 mb - 0.00 in0.0 mm 0.06 in1.5 mm
02:20 PM 49.6°F9.8°C 48.8°F9.3°C 97% 3.5 mph SW5.6 kmh SW 11.5 mph18.5 kmh 29.46 in997.6 mb - 0.00 in0.0 mm 0.06 in1.5 mm
02:30 PM 50.8°F10.4°C 49.9°F9.9°C 97% 2.3 mph WSW3.7 kmh WSW 3.5 mph5.6 kmh 29.47 in998.0 mb - 0.00 in0.0 mm 0.06 in1.5 mm
02:40 PM 51.0°F10.6°C 49.9°F9.9°C 96% 3.5 mph NW5.6 kmh NW 11.5 mph18.5 kmh 29.47 in998.0 mb - 0.00 in0.0 mm 0.06 in1.5 mm
02:50 PM 50.9°F10.5°C 49.5°F9.7°C 95% 3.5 mph NW5.6 kmh NW 6.9 mph11.1 kmh 29.47 in998.0 mb - 0.00 in0.0 mm 0.06 in1.5 mm
03:00 PM 50.5°F10.3°C 48.9°F9.4°C 94% 5.8 mph NW9.3 kmh NW 12.7 mph20.4 kmh 29.47 in998.0 mb - 0.00 in0.0 mm 0.06 in1.5 mm
03:10 PM 50.5°F10.3°C 48.3°F9.1°C 92% 2.3 mph NW3.7 kmh NW 12.7 mph20.4 kmh 29.48 in998.3 mb - 0.00 in0.0 mm 0.06 in1.5 mm
03:20 PM 50.6°F10.3°C 47.8°F8.8°C 90% 3.5 mph WNW5.6 kmh WNW 11.5 mph18.5 kmh 29.48 in998.3 mb - 0.00 in0.0 mm 0.06 in1.5 mm
03:30 PM 50.8°F10.4°C 47.7°F8.7°C 89% 1.2 mph WNW1.9 kmh WNW 13.8 mph22.2 kmh 29.48 in998.3 mb - 0.00 in0.0 mm 0.06 in1.5 mm
03:40 PM 50.9°F10.5°C 47.5°F8.6°C 88% 1.2 mph NW1.9 kmh NW 4.6 mph7.4 kmh 29.49 in998.6 mb - 0.00 in0.0 mm 0.06 in1.5 mm
03:50 PM 50.9°F10.5°C 47.5°F8.6°C 88% 2.3 mph WNW3.7 kmh WNW 16.1 mph25.9 kmh 29.50 in999.0 mb - 0.00 in0.0 mm 0.06 in1.5 mm
04:00 PM 50.8°F10.4°C 47.4°F8.6°C 88% 5.8 mph WSW9.3 kmh WSW 11.5 mph18.5 kmh 29.51 in999.3 mb - 0.00 in0.0 mm 0.06 in1.5 mm
04:10 PM 50.6°F10.3°C 47.2°F8.4°C 88% 2.3 mph WNW3.7 kmh WNW 13.8 mph22.2 kmh 29.52 in999.7 mb - 0.00 in0.0 mm 0.06 in1.5 mm
04:20 PM 50.4°F10.2°C 46.7°F8.2°C 87% 8.1 mph WNW13.0 kmh WNW 16.1 mph25.9 kmh 29.52 in999.7 mb - 0.00 in0.0 mm 0.06 in1.5 mm
04:30 PM 50.4°F10.2°C 46.7°F8.2°C 87% 5.8 mph WSW9.3 kmh WSW 12.7 mph20.4 kmh 29.53 in1000.0 mb - 0.00 in0.0 mm 0.06 in1.5 mm
04:40 PM 50.4°F10.2°C 46.7°F8.2°C 87% 8.1 mph WNW13.0 kmh WNW 13.8 mph22.2 kmh 29.54 in1000.3 mb - 0.00 in0.0 mm 0.06 in1.5 mm
04:50 PM 50.4°F10.2°C 46.7°F8.2°C 87% 5.8 mph WSW9.3 kmh WSW 8.1 mph13.0 kmh 29.54 in1000.3 mb - 0.00 in0.0 mm 0.06 in1.5 mm
05:00 PM 50.0°F10.0°C 46.6°F8.1°C 88% 1.2 mph SW1.9 kmh SW 6.9 mph11.1 kmh 29.55 in1000.7 mb - 0.00 in0.0 mm 0.06 in1.5 mm
05:10 PM 49.5°F9.7°C 46.1°F7.8°C 88% 4.6 mph WSW7.4 kmh WSW 11.5 mph18.5 kmh 29.56 in1001.0 mb - 0.00 in0.0 mm 0.06 in1.5 mm
05:20 PM 49.0°F9.4°C 45.6°F7.6°C 88% 3.5 mph WNW5.6 kmh WNW 9.2 mph14.8 kmh 29.56 in1001.0 mb - 0.00 in0.0 mm 0.06 in1.5 mm
05:30 PM 48.8°F9.3°C 44.8°F7.1°C 86% 4.6 mph WNW7.4 kmh WNW 19.6 mph31.5 kmh 29.57 in1001.4 mb - 0.00 in0.0 mm 0.06 in1.5 mm
05:40 PM 48.6°F9.2°C 44.6°F7.0°C 86% 8.1 mph W13.0 kmh W 11.5 mph18.5 kmh 29.58 in1001.7 mb - 0.00 in0.0 mm 0.06 in1.5 mm
05:50 PM 48.5°F9.2°C 44.5°F6.9°C 86% 8.1 mph NW13.0 kmh NW 16.1 mph25.9 kmh 29.59 in1002.0 mb - 0.00 in0.0 mm 0.06 in1.5 mm
06:00 PM 48.3°F9.1°C 44.6°F7.0°C 87% 8.1 mph NW13.0 kmh NW 12.7 mph20.4 kmh 29.61 in1002.7 mb - 0.00 in0.0 mm 0.06 in1.5 mm
06:10 PM 48.1°F8.9°C 44.4°F6.9°C 87% 2.3 mph NW3.7 kmh NW 8.1 mph13.0 kmh 29.62 in1003.0 mb - 0.00 in0.0 mm 0.06 in1.5 mm
06:20 PM 47.6°F8.7°C 44.2°F6.8°C 88% 10.4 mph NW16.7 kmh NW 16.1 mph25.9 kmh 29.64 in1003.7 mb - 0.00 in0.0 mm 0.06 in1.5 mm
06:30 PM 46.8°F8.2°C 43.8°F6.6°C 89% 1.2 mph NNW1.9 kmh NNW 11.5 mph18.5 kmh 29.65 in1004.1 mb - 0.00 in0.0 mm 0.06 in1.5 mm
06:40 PM 46.2°F7.9°C 43.4°F6.3°C 90% 3.5 mph NW5.6 kmh NW 10.4 mph16.7 kmh 29.67 in1004.7 mb - 0.00 in0.0 mm 0.06 in1.5 mm
06:50 PM 45.5°F7.5°C 42.7°F5.9°C 90% Calm Calm 4.6 mph7.4 kmh 29.68 in1005.1 mb - 0.00 in0.0 mm 0.06 in1.5 mm
07:00 PM 44.5°F6.9°C 41.7°F5.4°C 90% 1.2 mph NNW1.9 kmh NNW 4.6 mph7.4 kmh 29.69 in1005.4 mb - 0.00 in0.0 mm 0.06 in1.5 mm
07:10 PM 43.9°F6.6°C 41.4°F5.2°C 91% Calm Calm -- 29.70 in1005.8 mb - 0.00 in0.0 mm 0.06 in1.5 mm
07:20 PM 43.5°F6.4°C 41.0°F5.0°C 91% Calm Calm -- 29.70 in1005.8 mb - 0.00 in0.0 mm 0.06 in1.5 mm
07:30 PM 43.2°F6.2°C 40.8°F4.9°C 91% Calm Calm 4.6 mph7.4 kmh 29.72 in1006.4 mb - 0.00 in0.0 mm 0.06 in1.5 mm
07:50 PM 42.6°F5.9°C 40.5°F4.7°C 92% Calm Calm 5.8 mph9.3 kmh 29.73 in1006.8 mb - 0.00 in0.0 mm 0.06 in1.5 mm
08:00 PM 42.4°F5.8°C 40.2°F4.6°C 92% Calm Calm -- 29.74 in1007.1 mb - 0.00 in0.0 mm 0.06 in1.5 mm
08:10 PM 42.0°F5.6°C 39.5°F4.2°C 91% 2.3 mph NNW3.7 kmh NNW 8.1 mph13.0 kmh 29.75 in1007.5 mb - 0.00 in0.0 mm 0.06 in1.5 mm
08:20 PM 41.5°F5.3°C 39.1°F3.9°C 91% Calm Calm -- 29.77 in1008.1 mb - 0.00 in0.0 mm 0.06 in1.5 mm
08:30 PM 41.2°F5.1°C 39.1°F3.9°C 92% Calm Calm -- 29.78 in1008.5 mb - 0.00 in0.0 mm 0.06 in1.5 mm
08:40 PM 41.0°F5.0°C 38.8°F3.8°C 92% Calm Calm 3.5 mph5.6 kmh 29.79 in1008.8 mb - 0.00 in0.0 mm 0.06 in1.5 mm
08:50 PM 40.6°F4.8°C 38.5°F3.6°C 92% 1.2 mph NNW1.9 kmh NNW 3.5 mph5.6 kmh 29.80 in1009.1 mb - 0.00 in0.0 mm 0.06 in1.5 mm
09:00 PM 39.9°F4.4°C 37.5°F3.1°C 91% 1.2 mph NW1.9 kmh NW 2.3 mph3.7 kmh 29.80 in1009.1 mb - 0.00 in0.0 mm 0.06 in1.5 mm
09:10 PM 39.5°F4.2°C 37.1°F2.8°C 91% Calm Calm -- 29.81 in1009.5 mb - 0.00 in0.0 mm 0.06 in1.5 mm
09:20 PM 39.2°F4.0°C 37.1°F2.8°C 92% Calm Calm 1.2 mph1.9 kmh 29.82 in1009.8 mb - 0.00 in0.0 mm 0.06 in1.5 mm
09:30 PM 39.2°F4.0°C 37.1°F2.8°C 92% Calm Calm 1.2 mph1.9 kmh 29.83 in1010.2 mb - 0.00 in0.0 mm 0.06 in1.5 mm
09:40 PM 38.9°F3.8°C 36.8°F2.7°C 92% 3.5 mph NNW5.6 kmh NNW 5.8 mph9.3 kmh 29.84 in1010.5 mb - 0.00 in0.0 mm 0.06 in1.5 mm
09:50 PM 38.5°F3.6°C 36.4°F2.4°C 92% 1.2 mph NNW1.9 kmh NNW 3.5 mph5.6 kmh 29.84 in1010.5 mb - 0.00 in0.0 mm 0.06 in1.5 mm
10:00 PM 38.3°F3.5°C 36.2°F2.3°C 92% Calm Calm -- 29.86 in1011.2 mb - 0.00 in0.0 mm 0.06 in1.5 mm
10:10 PM 38.2°F3.4°C 36.1°F2.3°C 92% Calm Calm 1.2 mph1.9 kmh 29.85 in1010.8 mb - 0.00 in0.0 mm 0.06 in1.5 mm
10:20 PM 38.2°F3.4°C 36.0°F2.2°C 92% Calm Calm 2.3 mph3.7 kmh 29.86 in1011.2 mb - 0.00 in0.0 mm 0.06 in1.5 mm
10:30 PM 37.9°F3.3°C 35.8°F2.1°C 92% Calm Calm -- 29.86 in1011.2 mb - 0.00 in0.0 mm 0.06 in1.5 mm
10:40 PM 37.6°F3.1°C 35.5°F1.9°C 92% Calm Calm -- 29.87 in1011.5 mb - 0.00 in0.0 mm 0.06 in1.5 mm
10:50 PM 37.3°F2.9°C 35.2°F1.8°C 92% Calm Calm -- 29.88 in1011.9 mb - 0.00 in0.0 mm 0.06 in1.5 mm
11:00 PM 37.0°F2.8°C 34.9°F1.6°C 92% Calm Calm -- 29.88 in1011.9 mb - 0.00 in0.0 mm 0.06 in1.5 mm
11:10 PM 36.9°F2.7°C 35.1°F1.7°C 93% Calm Calm -- 29.89 in1012.2 mb - 0.00 in0.0 mm 0.06 in1.5 mm
11:20 PM 36.9°F2.7°C 35.1°F1.7°C 93% Calm Calm -- 29.89 in1012.2 mb - 0.00 in0.0 mm 0.06 in1.5 mm
11:30 PM 37.0°F2.8°C 35.2°F1.8°C 93% Calm Calm -- 29.90 in1012.5 mb - 0.00 in0.0 mm 0.06 in1.5 mm
11:40 PM 37.0°F2.8°C 35.2°F1.8°C 93% Calm Calm -- 29.91 in1012.9 mb - 0.00 in0.0 mm 0.06 in1.5 mm
11:50 PM 37.0°F2.8°C 35.4°F1.9°C 94% Calm Calm -- 29.91 in1012.9 mb - 0.00 in0.0 mm 0.06 in1.5 mm